Time;durP1;ratioP1;P1;durP2;ratioP2;P2;SDS_P1;SDS_P2;PMS_P1;PMS_P2;Temp;Humidity;BMP_temperature;BMP_pressure;BME280_temperature;BME280_humidity;BME280_pressure;Samples;Min_cycle;Max_cycle;Signal;HPM_P1;HPM_P2
2022/04/02 00:01:41;;;;;;;14.18;5.55;;;;;;;12.07;nan;-24154.13;4974999;28;20248;-75
2022/04/02 00:04:08;;;;;;;21.52;6.70;;;;;;;11.77;nan;-24145.69;4974418;28;20252;-74
2022/04/02 00:06:34;;;;;;;16.77;6.65;;;;;;;11.68;nan;-24143.13;4974373;28;20232;-75
2022/04/02 00:09:00;;;;;;;21.05;7.13;;;;;;;11.77;nan;-24145.81;4974482;28;20173;-75
2022/04/02 00:11:26;;;;;;;18.48;6.32;;;;;;;11.74;nan;-24144.97;4974017;28;20604;-73
2022/04/02 00:13:51;;;;;;;19.85;6.93;;;;;;;11.37;nan;-24134.53;4974358;28;20177;-74
2022/04/02 00:16:17;;;;;;;20.52;6.68;;;;;;;10.89;nan;-24121.16;4957009;28;20275;-75
2022/04/02 00:18:43;;;;;;;14.93;6.47;;;;;;;11.20;nan;-24129.88;4974217;28;20177;-74
2022/04/02 00:21:09;;;;;;;20.33;6.40;;;;;;;11.58;nan;-24140.31;4974263;28;20174;-73
2022/04/02 00:23:43;;;;;;;16.63;6.33;;;;;;;11.48;nan;-24137.63;4956060;28;20267;-75
2022/04/02 00:26:10;;;;;;;21.75;7.07;;;;;;;11.42;nan;-24135.97;4973769;28;20164;-74
2022/04/02 00:28:39;;;;;;;24.38;6.60;;;;;;;11.55;nan;-24139.47;4973933;28;20211;-75
2022/04/02 00:31:05;;;;;;;18.90;6.43;;;;;;;11.50;nan;-24138.34;4973835;28;20184;-75
2022/04/02 00:33:31;;;;;;;21.35;6.80;;;;;;;11.43;nan;-24136.22;4973958;28;20165;-75
2022/04/02 00:35:56;;;;;;;19.13;6.53;;;;;;;11.20;nan;-24129.88;4973844;28;20541;-74
2022/04/02 00:38:22;;;;;;;19.40;7.00;;;;;;;11.31;nan;-24133.00;4973517;28;20181;-75
2022/04/02 00:40:47;;;;;;;19.40;6.70;;;;;;;11.30;nan;-24132.72;4973019;28;20173;-75
2022/04/02 00:43:27;;;;;;;26.23;7.07;;;;;;;11.31;nan;-24133.00;4972749;28;20176;-73
2022/04/02 00:45:54;;;;;;;24.17;7.13;;;;;;;11.17;nan;-24129.03;4974481;28;20270;-74
2022/04/02 00:48:21;;;;;;;23.47;6.47;;;;;;;11.34;nan;-24133.84;4973891;28;20260;-75
2022/04/02 00:50:52;;;;;;;17.07;6.33;;;;;;;11.00;nan;-24124.41;4973977;28;20631;-75
2022/04/02 00:53:18;;;;;;;14.70;6.73;;;;;;;11.28;nan;-24132.00;4973703;28;20200;-75
2022/04/02 00:55:45;;;;;;;19.27;6.77;;;;;;;10.95;nan;-24123.00;4973954;28;20177;-74
2022/04/02 00:58:11;;;;;;;23.30;6.80;;;;;;;10.97;nan;-24123.41;4973841;28;20176;-75
2022/04/02 01:00:37;;;;;;;19.70;6.53;;;;;;;11.24;nan;-24131.03;4973910;28;20570;-76
2022/04/02 01:03:03;;;;;;;24.83;7.00;;;;;;;11.04;nan;-24125.53;4956352;28;20653;-74
2022/04/02 01:05:29;;;;;;;22.63;7.50;;;;;;;11.12;nan;-24127.63;4973251;28;20189;-74
2022/04/02 01:07:55;;;;;;;17.92;7.65;;;;;;;11.65;nan;-24142.44;4973458;28;20733;-75
2022/04/02 01:10:21;;;;;;;23.90;8.27;;;;;;;11.61;nan;-24141.31;4973617;28;20173;-75
2022/04/02 01:12:47;;;;;;;21.57;7.60;;;;;;;11.67;nan;-24142.84;4973481;28;20619;-74
2022/04/02 01:15:12;;;;;;;27.58;9.18;;;;;;;11.15;nan;-24128.34;4973301;28;20248;-75
2022/04/02 01:17:40;;;;;;;18.63;8.07;;;;;;;11.51;nan;-24138.63;4973565;28;20597;-76
2022/04/02 01:20:08;;;;;;;22.43;7.40;;;;;;;11.44;nan;-24136.50;4955896;28;20553;-76
2022/04/02 01:22:34;;;;;;;21.00;6.83;;;;;;;10.98;nan;-24123.84;4973278;28;20707;-74
2022/04/02 01:24:59;;;;;;;16.17;7.27;;;;;;;11.36;nan;-24134.25;4973663;28;20201;-76
2022/04/02 01:27:25;;;;;;;24.97;8.13;;;;;;;11.04;nan;-24125.38;4973163;28;20661;-75
2022/04/02 01:29:50;;;;;;;22.87;7.67;;;;;;;11.31;nan;-24133.00;4973186;28;20219;-75
2022/04/02 01:32:15;;;;;;;21.67;8.10;;;;;;;10.84;nan;-24119.75;4973353;28;20208;-76
2022/04/02 01:34:41;;;;;;;20.40;8.32;;;;;;;10.77;nan;-24117.78;4972953;28;20268;-75
2022/04/02 01:37:07;;;;;;;18.37;7.77;;;;;;;10.67;nan;-24114.94;4973516;28;20235;-76
2022/04/02 01:39:32;;;;;;;19.15;8.02;;;;;;;10.97;nan;-24123.53;4973822;28;20220;-74
2022/04/02 01:42:05;;;;;;;20.17;8.27;;;;;;;10.94;nan;-24122.56;4972946;28;20173;-75
2022/04/02 01:44:30;;;;;;;21.60;7.77;;;;;;;10.76;nan;-24117.47;4972937;28;20553;-75
2022/04/02 01:46:56;;;;;;;26.43;9.27;;;;;;;11.35;nan;-24134.13;4973024;28;20185;-76
2022/04/02 01:49:21;;;;;;;25.27;8.33;;;;;;;11.43;nan;-24136.38;4972687;28;20614;-76
2022/04/02 01:51:46;;;;;;;19.00;8.57;;;;;;;10.88;nan;-24120.88;4973386;28;20181;-75
2022/04/02 01:54:12;;;;;;;17.87;9.17;;;;;;;10.86;nan;-24120.31;4972964;28;20181;-76
2022/04/02 01:56:37;;;;;;;23.73;8.63;;;;;;;10.91;nan;-24121.84;4973118;28;20182;-76
2022/04/02 01:59:03;;;;;;;20.13;9.40;;;;;;;10.81;nan;-24118.91;4955508;28;20188;-75
2022/04/02 02:01:28;;;;;;;26.27;13.47;;;;;;;10.73;nan;-24116.63;4973142;28;20248;-76
2022/04/02 02:03:53;;;;;;;24.60;12.57;;;;;;;11.24;nan;-24130.88;4955291;28;20572;-76
2022/04/02 02:06:19;;;;;;;29.90;11.70;;;;;;;11.04;nan;-24125.53;4972720;28;20256;-75
2022/04/02 02:08:44;;;;;;;23.00;10.50;;;;;;;11.13;nan;-24127.91;4973121;28;20616;-76
2022/04/02 02:11:09;;;;;;;24.73;10.53;;;;;;;10.77;nan;-24117.78;4974599;28;20209;-76
2022/04/02 02:13:35;;;;;;;22.57;10.40;;;;;;;11.28;nan;-24132.16;4977162;28;20180;-76
2022/04/02 02:16:00;;;;;;;22.80;10.50;;;;;;;10.87;nan;-24120.59;4976672;28;20174;-76
2022/04/02 02:18:25;;;;;;;25.83;9.80;;;;;;;10.60;nan;-24113.13;4958931;28;20652;-76
2022/04/02 02:20:51;;;;;;;19.37;8.67;;;;;;;10.54;nan;-24111.41;4959672;28;20181;-76
2022/04/02 02:23:16;;;;;;;20.23;10.37;;;;;;;10.96;nan;-24123.13;4976574;28;20173;-75
2022/04/02 02:25:42;;;;;;;24.90;9.03;;;;;;;10.98;nan;-24123.84;4976820;28;20205;-76
2022/04/02 02:28:07;;;;;;;24.63;8.73;;;;;;;10.82;nan;-24119.19;4976144;28;20188;-76
2022/04/02 02:30:33;;;;;;;20.43;6.80;;;;;;;11.19;nan;-24129.47;4976329;28;20181;-76
2022/04/02 02:35:51;;;;;;;17.97;7.07;;;;;;;11.03;nan;-24125.25;4976129;28;20637;-75
2022/04/02 02:38:22;;;;;;;17.75;6.97;;;;;;;11.40;nan;-24135.53;4976312;28;20245;-75
2022/04/02 02:40:51;;;;;;;15.10;5.70;;;;;;;10.56;nan;-24111.97;4958761;28;20252;-76
2022/04/02 02:43:18;;;;;;;16.00;5.97;;;;;;;10.37;nan;-24106.63;4976096;28;20626;-76
2022/04/02 02:45:44;;;;;;;16.07;5.87;;;;;;;9.63;nan;-24086.00;4976188;28;20292;-76
2022/04/02 02:48:10;;;;;;;15.73;6.87;;;;;;;10.09;nan;-24099.00;4976371;28;20261;-76
2022/04/02 02:50:36;;;;;;;14.90;6.53;;;;;;;10.26;nan;-24103.53;4975915;28;20225;-74
2022/04/02 02:53:02;;;;;;;18.10;6.67;;;;;;;9.91;nan;-24093.78;4976300;28;20176;-76
2022/04/02 02:55:30;;;;;;;16.20;7.07;;;;;;;9.52;nan;-24083.03;4975931;28;20248;-76
2022/04/02 02:57:56;;;;;;;17.37;6.17;;;;;;;9.62;nan;-24085.84;4975590;28;20177;-75
2022/04/02 03:00:23;;;;;;;16.87;6.70;;;;;;;9.69;nan;-24087.84;4975849;28;20712;-76
2022/04/02 03:02:48;;;;;;;12.53;6.27;;;;;;;9.52;nan;-24082.91;4958526;28;20188;-76
2022/04/02 03:05:16;;;;;;;16.07;6.77;;;;;;;9.63;nan;-24086.00;4975696;28;20197;-75
2022/04/02 03:07:49;;;;;;;16.17;6.40;;;;;;;9.56;nan;-24084.03;4975814;28;20178;-75
2022/04/02 03:10:20;;;;;;;16.80;6.23;;;;;;;9.98;nan;-24095.88;4975772;28;20175;-76
2022/04/02 03:12:52;;;;;;;15.77;5.80;;;;;;;9.37;nan;-24078.66;4957891;28;20209;-75
2022/04/02 03:15:18;;;;;;;13.97;5.67;;;;;;;9.17;nan;-24073.28;4975774;28;20180;-76
2022/04/02 03:17:44;;;;;;;16.77;6.70;;;;;;;9.54;nan;-24083.47;4975641;28;20173;-76
2022/04/02 03:20:14;;;;;;;12.83;6.33;;;;;;;9.45;nan;-24080.91;4975495;28;20178;-75
2022/04/02 03:22:41;;;;;;;17.80;7.40;;;;;;;9.47;nan;-24081.63;4973988;28;20237;-75
2022/04/02 03:25:12;;;;;;;19.93;7.30;;;;;;;9.41;nan;-24079.91;4975188;28;20194;-75
2022/04/02 03:27:39;;;;;;;23.03;8.03;;;;;;;9.22;nan;-24074.56;4975794;28;20204;-74
2022/04/02 03:30:07;;;;;;;14.77;7.00;;;;;;;9.69;nan;-24087.84;4958084;28;20173;-75
2022/04/02 03:32:33;;;;;;;14.33;7.00;;;;;;;9.26;nan;-24075.69;4975336;28;20235;-74
2022/04/02 03:34:59;;;;;;;15.27;6.87;;;;;;;9.40;nan;-24079.63;4975044;28;20166;-76
2022/04/02 03:37:25;;;;;;;19.30;7.40;;;;;;;9.62;nan;-24085.72;4975192;28;20181;-76
2022/04/02 03:39:52;;;;;;;19.50;7.93;;;;;;;9.73;nan;-24088.97;4957577;28;20683;-75
2022/04/02 03:42:18;;;;;;;23.33;8.23;;;;;;;9.71;nan;-24088.41;4973869;28;20641;-75
2022/04/02 03:44:44;;;;;;;21.63;7.80;;;;;;;9.56;nan;-24084.03;4974846;28;20193;-74
2022/04/02 03:47:10;;;;;;;25.60;8.07;;;;;;;9.57;nan;-24084.44;4974607;28;20228;-75
2022/04/02 03:49:40;;;;;;;21.13;8.10;;;;;;;9.59;nan;-24085.00;4953771;29;20313;-75
2022/04/02 03:52:07;;;;;;;21.80;7.87;;;;;;;9.21;nan;-24074.25;4953628;29;20178;-75
2022/04/02 03:54:38;;;;;;;17.07;7.47;;;;;;;9.37;nan;-24078.66;4955156;28;20257;-75
2022/04/02 03:57:05;;;;;;;23.13;7.37;;;;;;;9.50;nan;-24082.47;4954925;28;20595;-75
2022/04/02 03:59:31;;;;;;;18.87;7.77;;;;;;;9.49;nan;-24082.03;4954015;28;20193;-74
2022/04/02 04:01:57;;;;;;;18.53;8.07;;;;;;;9.09;nan;-24071.03;4955348;28;20178;-75
2022/04/02 04:04:23;;;;;;;24.27;8.30;;;;;;;9.51;nan;-24082.59;4955069;28;20428;-75
2022/04/02 04:06:48;;;;;;;17.17;8.17;;;;;;;9.29;nan;-24076.53;4955175;28;20257;-75
2022/04/02 04:09:14;;;;;;;18.17;7.37;;;;;;;8.88;nan;-24064.94;4955965;29;20186;-74
2022/04/02 04:11:40;;;;;;;18.93;7.53;;;;;;;9.26;nan;-24075.81;4955674;28;20218;-75
2022/04/02 04:14:05;;;;;;;18.87;7.90;;;;;;;9.69;nan;-24087.84;4955190;28;20201;-75
2022/04/02 04:16:30;;;;;;;21.97;7.67;;;;;;;9.74;nan;-24089.25;4955200;29;20185;-75
2022/04/02 04:18:56;;;;;;;20.13;8.10;;;;;;;9.95;nan;-24095.03;4954864;29;20170;-75
2022/04/02 04:21:22;;;;;;;14.50;7.67;;;;;;;9.81;nan;-24091.09;4954875;28;20174;-75
2022/04/02 04:23:47;;;;;;;18.47;7.00;;;;;;;9.79;nan;-24090.38;4954993;28;20190;-75
2022/04/02 04:26:13;;;;;;;21.13;7.43;;;;;;;9.82;nan;-24091.38;4954993;28;20178;-73
2022/04/02 04:28:39;;;;;;;16.67;6.83;;;;;;;10.16;nan;-24100.84;4954889;28;20604;-69
2022/04/02 04:31:05;;;;;;;16.53;7.87;;;;;;;10.21;nan;-24102.09;4955170;28;20193;-69
2022/04/02 04:33:31;;;;;;;16.97;7.80;;;;;;;10.14;nan;-24100.41;4954530;28;20675;-69
2022/04/02 04:35:57;;;;;;;21.70;8.13;;;;;;;10.18;nan;-24101.53;4954697;28;20618;-68
2022/04/02 04:38:23;;;;;;;14.73;7.80;;;;;;;10.56;nan;-24112.13;4955287;28;20193;-68
2022/04/02 04:40:48;;;;;;;15.83;8.10;;;;;;;10.59;nan;-24112.81;4954981;28;20253;-69
2022/04/02 04:43:14;;;;;;;19.27;8.23;;;;;;;10.70;nan;-24115.78;4955045;29;20245;-69
2022/04/02 04:45:39;;;;;;;26.63;15.10;;;;;;;10.98;nan;-24123.69;4954608;28;20569;-69
2022/04/02 04:48:05;;;;;;;26.37;15.93;;;;;;;10.88;nan;-24120.88;4954818;29;20250;-69
2022/04/02 04:50:31;;;;;;;37.23;19.60;;;;;;;10.67;nan;-24114.94;4965779;28;20228;-68
2022/04/02 04:52:57;;;;;;;34.93;18.57;;;;;;;11.02;nan;-24124.81;4973355;28;20184;-69
2022/04/02 04:55:23;;;;;;;23.27;10.17;;;;;;;11.07;nan;-24126.22;4973751;28;20181;-68
2022/04/02 04:57:49;;;;;;;22.43;8.27;;;;;;;11.11;nan;-24127.34;4973633;28;20547;-69
2022/04/02 05:00:15;;;;;;;21.67;8.60;;;;;;;11.02;nan;-24124.97;4973109;28;20213;-69
2022/04/02 05:02:44;;;;;;;21.67;8.63;;;;;;;10.94;nan;-24122.69;4973498;28;20216;-68
2022/04/02 05:05:13;;;;;;;22.80;9.20;;;;;;;11.25;nan;-24131.16;4972093;28;20300;-69
2022/04/02 05:07:41;;;;;;;21.07;9.00;;;;;;;11.12;nan;-24127.63;4973298;28;20208;-69
2022/04/02 05:10:08;;;;;;;19.20;9.73;;;;;;;11.60;nan;-24141.03;4973656;28;20177;-69
2022/04/02 05:12:35;;;;;;;27.67;10.52;;;;;;;11.58;nan;-24140.31;4973557;28;20181;-69
2022/04/02 05:15:01;;;;;;;19.88;10.35;;;;;;;11.89;nan;-24149.06;4974094;28;20185;-70
2022/04/02 05:17:26;;;;;;;21.17;10.43;;;;;;;12.28;nan;-24160.03;4951246;29;20643;-69
2022/04/02 05:19:52;;;;;;;16.08;9.45;;;;;;;12.67;nan;-24170.72;4953589;28;20174;-69
2022/04/02 05:22:18;;;;;;;19.67;10.27;;;;;;;12.67;nan;-24170.88;4953675;28;20181;-69
2022/04/02 05:24:43;;;;;;;19.42;10.02;;;;;;;13.02;nan;-24180.44;4953779;28;20677;-69
2022/04/02 05:27:09;;;;;;;19.75;9.85;;;;;;;13.05;nan;-24181.41;4954169;29;20201;-69
2022/04/02 05:29:35;;;;;;;21.88;9.73;;;;;;;12.93;nan;-24178.03;4952210;29;20182;-70
2022/04/02 05:32:00;;;;;;;20.13;9.70;;;;;;;11.95;nan;-24150.88;4953458;28;20174;-69
2022/04/02 05:34:26;;;;;;;25.10;10.05;;;;;;;12.46;nan;-24164.97;4953146;29;20182;-69
2022/04/02 05:36:51;;;;;;;22.48;10.98;;;;;;;12.52;nan;-24166.66;4953550;29;20178;-69
2022/04/02 05:39:16;;;;;;;20.35;10.73;;;;;;;12.88;nan;-24176.63;4953461;28;20181;-69
2022/04/02 05:41:42;;;;;;;27.38;11.50;;;;;;;13.11;nan;-24183.09;4953434;29;20170;-69
2022/04/02 05:44:07;;;;;;;24.85;11.63;;;;;;;12.67;nan;-24170.88;4953399;28;20194;-69
2022/04/02 05:46:33;;;;;;;22.65;10.23;;;;;;;11.95;nan;-24150.75;4954455;28;20188;-69
2022/04/02 05:48:59;;;;;;;29.13;10.93;;;;;;;12.15;nan;-24156.38;4957522;28;20221;-69
2022/04/02 05:51:25;;;;;;;23.70;11.70;;;;;;;12.23;nan;-24158.50;4957691;28;20217;-69
2022/04/02 05:53:51;;;;;;;25.45;12.25;;;;;;;12.54;nan;-24167.06;4957320;29;20180;-69
2022/04/02 05:56:18;;;;;;;20.80;10.95;;;;;;;12.58;nan;-24168.19;4957368;29;20174;-69
2022/04/02 05:58:44;;;;;;;20.95;10.38;;;;;;;12.82;nan;-24175.09;4957477;29;20289;-70
2022/04/02 06:01:09;;;;;;;19.05;10.40;;;;;;;12.93;nan;-24177.91;4957363;29;20257;-70
2022/04/02 06:03:37;;;;;;;26.45;11.57;;;;;;;13.05;nan;-24181.41;4957062;29;20174;-70
2022/04/02 06:06:02;;;;;;;25.08;11.32;;;;;;;13.36;nan;-24190.00;4957384;29;20202;-70
2022/04/02 06:08:28;;;;;;;24.17;11.05;;;;;;;13.42;nan;-24191.66;4957063;29;20189;-70
2022/04/02 06:10:53;;;;;;;27.10;10.82;;;;;;;13.71;nan;-24199.69;4957194;29;20230;-70
2022/04/02 06:13:19;;;;;;;17.10;8.60;;;;;;;13.64;nan;-24197.72;4957106;29;20555;-70
2022/04/02 06:15:44;;;;;;;24.00;10.23;;;;;;;13.65;nan;-24198.00;4956652;29;20647;-70
2022/04/02 06:18:11;;;;;;;25.48;10.23;;;;;;;13.97;nan;-24206.97;4938986;29;20621;-70
2022/04/02 06:20:37;;;;;;;29.88;11.80;;;;;;;14.04;nan;-24208.94;4956605;29;20269;-70
2022/04/02 06:23:03;;;;;;;24.85;13.15;;;;;;;13.90;nan;-24204.88;4956795;29;20256;-70
2022/04/02 06:25:29;;;;;;;31.33;12.88;;;;;;;14.09;nan;-24210.34;4956661;29;20205;-69
2022/04/02 06:27:54;;;;;;;20.10;10.52;;;;;;;14.22;nan;-24213.72;4956702;29;20174;-70
2022/04/02 06:30:23;;;;;;;25.42;12.05;;;;;;;14.20;nan;-24213.16;4956795;29;20637;-70
2022/04/02 06:32:49;;;;;;;29.67;13.88;;;;;;;14.95;nan;-24234.03;4956303;29;20244;-69
2022/04/02 06:35:14;;;;;;;35.60;15.18;;;;;;;14.80;nan;-24229.84;4956488;29;20181;-70
2022/04/02 06:37:41;;;;;;;28.10;14.20;;;;;;;14.90;nan;-24232.63;4956637;29;20176;-70
2022/04/02 06:40:12;;;;;;;24.52;12.18;;;;;;;14.70;nan;-24227.03;4956406;29;20186;-71
2022/04/02 06:42:38;;;;;;;22.17;10.30;;;;;;;15.01;nan;-24235.72;4956015;29;20178;-71
2022/04/02 06:45:04;;;;;;;21.27;10.18;;;;;;;15.10;nan;-24238.09;4955866;29;20548;-71
2022/04/02 06:47:31;;;;;;;20.63;10.32;;;;;;;15.24;nan;-24242.03;4956264;29;20170;-71
2022/04/02 06:49:57;;;;;;;19.20;8.32;;;;;;;15.23;nan;-24241.88;4955744;29;20230;-69
2022/04/02 06:52:23;;;;;;;14.02;6.53;;;;;;;15.88;nan;-24259.94;4955947;29;20583;-69
2022/04/02 06:54:48;;;;;;;16.75;5.93;;;;;;;16.03;nan;-24263.88;4956204;29;20186;-69
2022/04/02 06:57:18;;;;;;;14.10;5.95;;;;;;;16.27;nan;-24270.72;4956045;28;20170;-69
2022/04/02 06:59:44;;;;;;;19.75;6.47;;;;;;;16.46;nan;-24275.75;4955970;29;20270;-69
2022/04/02 07:02:10;;;;;;;13.95;5.35;;;;;;;16.77;nan;-24284.56;4956152;29;20674;-69
2022/04/02 07:04:35;;;;;;;17.30;6.53;;;;;;;16.78;nan;-24284.84;4956447;29;20216;-69
2022/04/02 07:07:01;;;;;;;17.38;5.32;;;;;;;17.34;nan;-24300.19;4956401;29;20274;-69
2022/04/02 07:09:26;;;;;;;24.73;6.10;;;;;;;17.01;nan;-24291.13;4955797;29;20277;-70
2022/04/02 07:11:51;;;;;;;17.58;5.80;;;;;;;16.92;nan;-24288.47;4955816;29;20213;-71
2022/04/02 07:14:17;;;;;;;13.45;4.63;;;;;;;17.09;nan;-24293.22;4955596;29;20218;-70
2022/04/02 07:16:43;;;;;;;10.80;5.22;;;;;;;17.03;nan;-24291.69;4955685;29;20261;-69
2022/04/02 07:19:09;;;;;;;18.52;4.90;;;;;;;16.90;nan;-24288.06;4938780;29;20308;-70
2022/04/02 07:21:35;;;;;;;11.65;4.55;;;;;;;16.91;nan;-24288.34;4955817;29;20630;-70
2022/04/02 07:24:01;;;;;;;14.18;4.53;;;;;;;16.83;nan;-24285.97;4955628;29;20312;-70
2022/04/02 07:26:31;;;;;;;10.38;3.95;;;;;;;16.74;nan;-24283.72;4955826;29;20196;-69
2022/04/02 07:28:57;;;;;;;13.30;4.07;;;;;;;16.75;nan;-24283.88;4955195;29;20178;-70
2022/04/02 07:31:23;;;;;;;8.93;3.15;;;;;;;16.91;nan;-24288.34;4955831;29;20296;-69
2022/04/02 07:33:48;;;;;;;8.18;3.58;;;;;;;17.08;nan;-24292.94;4955688;29;20697;-69
2022/04/02 07:36:57;;;;;;;11.52;3.67;;;;;;;16.86;nan;-24286.78;4955510;29;20185;-70
2022/04/02 07:39:41;;;;;;;7.05;3.25;;;;;;;17.05;nan;-24292.25;4955639;29;20197;-70
2022/04/02 07:42:33;;;;;;;11.23;3.60;;;;;;;17.12;nan;-24294.06;4955560;29;20240;-69
2022/04/02 07:45:13;;;;;;;6.78;3.28;;;;;;;16.90;nan;-24287.91;4955621;29;20277;-69
2022/04/02 07:47:41;;;;;;;7.68;3.30;;;;;;;16.94;nan;-24289.03;4953203;29;20577;-69
2022/04/02 07:50:13;;;;;;;12.10;3.42;;;;;;;17.14;nan;-24294.63;4955340;29;20234;-69
2022/04/02 07:52:44;;;;;;;5.85;2.60;;;;;;;17.31;nan;-24299.38;4960039;28;20265;-69
2022/04/02 07:55:11;;;;;;;4.45;2.30;;;;;;;17.28;nan;-24298.53;4950615;29;20612;-69
2022/04/02 07:57:43;;;;;;;3.80;2.38;;;;;;;17.83;nan;-24313.75;4957410;28;20186;-69
2022/04/02 08:00:11;;;;;;;7.05;2.78;;;;;;;17.47;nan;-24303.81;4954933;29;20178;-70
2022/04/02 08:02:39;;;;;;;8.50;3.03;;;;;;;17.82;nan;-24313.47;4957046;28;20196;-69
2022/04/02 08:05:11;;;;;;;11.20;2.75;;;;;;;17.65;nan;-24308.84;4954584;29;20591;-69
2022/04/02 08:07:39;;;;;;;8.35;3.17;;;;;;;17.82;nan;-24313.47;4956970;28;20182;-70
2022/04/02 08:10:10;;;;;;;9.02;2.80;;;;;;;17.96;nan;-24317.34;4954556;29;20217;-69
2022/04/02 08:12:37;;;;;;;6.43;2.42;;;;;;;17.97;nan;-24317.50;4956811;28;20178;-70
2022/04/02 08:15:18;;;;;;;4.65;2.13;;;;;;;18.04;nan;-24319.44;4954754;29;20196;-70
2022/04/02 08:17:46;;;;;;;5.88;2.38;;;;;;;18.24;nan;-24324.88;4956951;28;20190;-69
2022/04/02 08:20:15;;;;;;;5.95;2.33;;;;;;;18.17;nan;-24323.06;4954845;29;20541;-69
2022/04/02 08:22:41;;;;;;;5.25;2.47;;;;;;;18.44;nan;-24330.59;4956782;28;20255;-69
2022/04/02 08:25:07;;;;;;;8.32;2.58;;;;;;;18.93;nan;-24343.97;4954200;29;20641;-69
2022/04/02 08:28:07;;;;;;;3.90;2.30;;;;;;;18.86;nan;-24342.16;4956688;28;20190;-69
2022/04/02 08:30:34;;;;;;;2.35;1.83;;;;;;;18.86;nan;-24342.16;4954667;29;20197;-69
2022/04/02 08:33:24;;;;;;;3.92;2.00;;;;;;;19.17;nan;-24350.50;4939181;29;20681;-69
2022/04/02 08:36:00;;;;;;;2.58;1.98;;;;;;;18.99;nan;-24345.66;4939398;29;20182;-69
2022/04/02 08:38:50;;;;;;;2.75;2.00;;;;;;;19.57;nan;-24361.66;4959390;28;20212;-69
2022/04/02 08:41:36;;;;;;;4.65;1.70;;;;;;;19.74;nan;-24366.38;4954368;28;20220;-71
2022/04/02 08:44:39;;;;;;;2.40;1.70;;;;;;;19.55;nan;-24360.94;4949787;29;20186;-70
2022/04/02 08:47:28;;;;;;;2.80;1.90;;;;;;;19.22;nan;-24351.91;4956280;28;20185;-70
2022/04/02 08:50:10;;;;;;;6.20;1.88;;;;;;;19.99;nan;-24373.19;4954610;28;20233;-70
2022/04/02 08:52:48;;;;;;;2.33;1.70;;;;;;;20.21;nan;-24379.28;4954786;28;20200;-70
2022/04/02 08:55:14;;;;;;;4.80;2.08;;;;;;;20.30;nan;-24381.66;4970397;28;20189;-70
2022/04/02 08:57:52;;;;;;;4.47;1.95;;;;;;;19.88;nan;-24370.13;4954026;28;20182;-70
2022/04/02 09:00:23;;;;;;;3.40;1.50;;;;;;;20.17;nan;-24378.19;4970761;28;20194;-70
2022/04/02 09:03:14;;;;;;;3.78;1.70;;;;;;;20.24;nan;-24380.13;4952723;28;20593;-70
2022/04/02 09:06:09;;;;;;;5.50;1.85;;;;;;;20.34;nan;-24382.78;4939876;28;20713;-69
2022/04/02 09:08:53;;;;;;;5.15;1.90;;;;;;;20.53;nan;-24387.91;4956120;28;20192;-70
2022/04/02 09:11:24;;;;;;;1.77;1.50;;;;;;;20.01;nan;-24373.59;4964746;28;20181;-70
2022/04/02 09:14:05;;;;;;;3.08;1.67;;;;;;;20.60;nan;-24389.97;4957686;28;20215;-69
2022/04/02 09:16:42;;;;;;;2.45;1.77;;;;;;;20.90;nan;-24398.16;4962580;28;20217;-69
2022/04/02 09:19:45;;;;;;;4.28;1.70;;;;;;;20.90;nan;-24398.16;4957664;28;20184;-69
2022/04/02 09:22:47;;;;;;;5.95;1.77;;;;;;;21.23;nan;-24407.03;4957434;28;20193;-70
2022/04/02 09:25:15;;;;;;;4.30;1.85;;;;;;;20.85;nan;-24396.78;4969759;28;20192;-70
2022/04/02 09:28:02;;;;;;;3.97;1.70;;;;;;;20.72;nan;-24393.19;4952978;28;20193;-69
2022/04/02 09:30:42;;;;;;;2.20;1.83;;;;;;;20.87;nan;-24397.34;4970290;28;20633;-69
2022/04/02 09:33:48;;;;;;;1.95;1.65;;;;;;;21.04;nan;-24402.06;4952528;28;20194;-69
2022/04/02 09:36:41;;;;;;;3.65;1.80;;;;;;;21.03;nan;-24401.63;4945662;28;20205;-70
2022/04/02 09:39:31;;;;;;;3.42;2.10;;;;;;;20.77;nan;-24394.56;4957107;28;20222;-71
2022/04/02 09:42:16;;;;;;;2.20;1.77;;;;;;;21.09;nan;-24403.44;4952915;28;20190;-70
2022/04/02 09:45:09;;;;;;;3.05;1.75;;;;;;;21.26;nan;-24407.88;4957739;28;20597;-70
2022/04/02 09:47:56;;;;;;;2.50;1.98;;;;;;;21.54;nan;-24415.78;4953916;28;20265;-70
2022/04/02 09:50:24;;;;;;;3.08;1.85;;;;;;;21.54;nan;-24415.66;4969908;28;20233;-71
2022/04/02 09:52:56;;;;;;;4.72;1.95;;;;;;;21.35;nan;-24410.50;4952075;28;20623;-71
2022/04/02 09:55:26;;;;;;;3.90;1.90;;;;;;;21.60;nan;-24417.44;4970034;28;20657;-71
2022/04/02 09:58:03;;;;;;;5.20;1.80;;;;;;;21.61;nan;-24417.59;4952506;28;20186;-71
2022/04/02 10:00:48;;;;;;;3.58;2.00;;;;;;;21.12;nan;-24404.28;4970065;28;20189;-71
2022/04/02 10:03:45;;;;;;;2.72;1.80;;;;;;;21.06;nan;-24402.59;4952484;28;20228;-71
2022/04/02 10:06:24;;;;;;;3.15;1.80;;;;;;;21.18;nan;-24405.81;4964899;28;20205;-71
2022/04/02 10:08:52;;;;;;;2.97;1.80;;;;;;;21.83;nan;-24423.53;4957623;28;20189;-71
2022/04/02 10:11:19;;;;;;;5.38;2.15;;;;;;;22.33;nan;-24437.25;4963062;28;20264;-71
2022/04/02 10:13:44;;;;;;;3.08;2.00;;;;;;;21.77;nan;-24421.88;4957069;28;20628;-71
2022/04/02 10:16:12;;;;;;;4.75;2.28;;;;;;;21.57;nan;-24416.47;4964759;28;20170;-71
2022/04/02 10:18:38;;;;;;;4.20;2.00;;;;;;;21.70;nan;-24419.94;4955519;28;20177;-71
2022/04/02 10:21:07;;;;;;;5.65;2.20;;;;;;;21.76;nan;-24421.75;4966093;28;20188;-70
2022/04/02 10:23:36;;;;;;;3.85;1.98;;;;;;;21.58;nan;-24416.88;4953960;28;20186;-69
2022/04/02 10:26:21;;;;;;;3.45;2.10;;;;;;;21.80;nan;-24422.84;4965838;28;20204;-69
2022/04/02 10:28:57;;;;;;;2.95;1.90;;;;;;;21.74;nan;-24421.03;4955519;28;20182;-70
2022/04/02 10:31:23;;;;;;;3.08;1.80;;;;;;;21.61;nan;-24417.59;4963238;28;20217;-68
2022/04/02 10:33:52;;;;;;;3.50;1.60;;;;;;;21.44;nan;-24413.00;4961161;28;20213;-69
2022/04/02 10:36:20;;;;;;;3.58;1.77;;;;;;;21.53;nan;-24415.50;4967097;28;20190;-69
2022/04/02 10:38:51;;;;;;;2.45;1.90;;;;;;;21.47;nan;-24413.69;4960766;28;20177;-65
2022/04/02 10:41:17;;;;;;;3.30;2.28;;;;;;;21.28;nan;-24408.44;4967413;28;20222;-66
2022/04/02 10:43:51;;;;;;;2.53;1.80;;;;;;;21.28;nan;-24408.44;4960341;28;20208;-66
2022/04/02 10:46:21;;;;;;;2.53;1.80;;;;;;;21.40;nan;-24411.75;4967114;28;20211;-66
2022/04/02 10:49:07;;;;;;;3.90;1.80;;;;;;;21.41;nan;-24412.19;4958637;28;20174;-66
2022/04/02 10:51:37;;;;;;;2.60;1.70;;;;;;;21.91;nan;-24425.91;4936275;29;20191;-65
2022/04/02 10:54:07;;;;;;;1.50;1.40;;;;;;;22.26;nan;-24435.31;4933069;29;20245;-66
2022/04/02 10:56:44;;;;;;;3.63;1.90;;;;;;;22.39;nan;-24438.91;4935999;29;20677;-66
2022/04/02 10:59:12;;;;;;;2.58;1.88;;;;;;;22.32;nan;-24436.97;4932999;29;20182;-66
2022/04/02 11:01:40;;;;;;;5.03;2.30;;;;;;;22.43;nan;-24440.00;4936080;29;20195;-66
2022/04/02 11:04:40;;;;;;;3.10;1.85;;;;;;;22.30;nan;-24436.41;4936866;29;20237;-66
2022/04/02 11:07:06;;;;;;;4.15;1.88;;;;;;;22.10;nan;-24431.03;4936054;29;20215;-66
2022/04/02 11:09:36;;;;;;;3.25;2.00;;;;;;;21.97;nan;-24427.56;4935229;29;20202;-66
2022/04/02 11:12:17;;;;;;;2.92;1.75;;;;;;;22.48;nan;-24441.53;4935113;29;20297;-65
2022/04/02 11:14:42;;;;;;;3.80;2.10;;;;;;;22.67;nan;-24446.50;4934440;29;20270;-66
2022/04/02 11:17:25;;;;;;;6.47;2.30;;;;;;;22.80;nan;-24450.25;4935852;29;20273;-66
2022/04/02 11:19:54;;;;;;;3.33;1.70;;;;;;;23.21;nan;-24461.31;4936637;29;20193;-65
2022/04/02 11:22:26;;;;;;;3.85;1.58;;;;;;;22.76;nan;-24449.16;4935242;29;20186;-65
2022/04/02 11:25:10;;;;;;;2.00;1.80;;;;;;;22.56;nan;-24443.47;4932238;29;20253;-65
2022/04/02 11:27:38;;;;;;;3.28;1.60;;;;;;;22.67;nan;-24446.66;4935307;29;20620;-65
2022/04/02 11:30:09;;;;;;;3.80;1.77;;;;;;;23.10;nan;-24458.25;4936503;29;20187;-65
2022/04/02 11:32:43;;;;;;;2.55;1.80;;;;;;;23.52;nan;-24469.88;4936294;29;20189;-65
2022/04/02 11:35:13;;;;;;;2.95;1.58;;;;;;;23.17;nan;-24460.34;4936435;29;20262;-65
2022/04/02 11:37:47;;;;;;;2.38;1.27;;;;;;;22.80;nan;-24450.09;4922782;29;20185;-65
2022/04/02 11:40:14;;;;;;;2.50;1.35;;;;;;;22.24;nan;-24434.88;4936164;29;20251;-66
2022/04/02 11:42:46;;;;;;;1.15;1.02;;;;;;;22.25;nan;-24435.16;4935706;29;20214;-65
2022/04/02 11:45:18;;;;;;;1.48;1.05;;;;;;;22.18;nan;-24433.22;4935440;29;20577;-65
2022/04/02 11:47:49;;;;;;;1.15;1.05;;;;;;;21.91;nan;-24425.91;4936169;29;20221;-65
2022/04/02 11:50:26;;;;;;;1.85;1.20;;;;;;;22.03;nan;-24429.09;4954563;28;20225;-65
2022/04/02 11:52:56;;;;;;;5.53;1.27;;;;;;;21.87;nan;-24424.78;4974484;28;20617;-65